Prairie Hill, Texas
Current Conditions -  °F | °C
As of 4:35 AM on Monday 22 Dec 2014 (Local Time) from KLXY Reporting Station
Overcast Overcast  
Wind Chill: 14°   Ceiling: 1500
Heat Index: 14°   Visibility: 10mi
Dew Point: 12°   Wind: 18mph
Humidity: 87%   Direction: 190°S
Pressure: 29.66"   Gusts: 26mph
Location:  31.66°N, 96.79°W
Report Text: KLXY 221035Z AUTO 19016G23KT 10SM BKN015 OVC021 14/12 A2966 RMK AO2 T01370115
Loading
Personal Weather Stations






























Interactive Weather Map New forecast layout! Learn more

10-Day Weather Forecast

Advertisements
Track Severe Weather on mobile